Time;durP1;ratioP1;P1;durP2;ratioP2;P2;SDS_P1;SDS_P2;PMS_P1;PMS_P2;Temp;Humidity;BMP_temperature;BMP_pressure;BME280_temperature;BME280_humidity;BME280_pressure;Samples;Min_cycle;Max_cycle;Signal;HPM_P1;HPM_P2
2023/12/11 11:15:33;;;;;;;15.93;2.97;;;;;;;9.11;100.00;100127.78;5302773;27;20365;-69
2023/12/11 11:18:11;;;;;;;10.30;2.63;;;;;;;9.11;100.00;100138.25;5282195;28;20512;-68
2023/12/11 11:21:07;;;;;;;9.40;2.43;;;;;;;9.37;100.00;100143.53;5281451;28;20032;-70
2023/12/11 11:23:47;;;;;;;12.27;2.67;;;;;;;9.42;100.00;100150.13;5290165;28;20028;-70
2023/12/11 11:26:35;;;;;;;11.30;2.63;;;;;;;9.31;100.00;100163.06;5285862;28;20039;-70
2023/12/11 11:29:07;;;;;;;9.17;2.23;;;;;;;9.26;100.00;100165.13;5294246;28;20363;-68
2023/12/11 11:31:51;;;;;;;5.93;1.37;;;;;;;9.18;100.00;100170.88;5293967;28;20039;-68
2023/12/11 11:34:41;;;;;;;6.05;1.50;;;;;;;9.14;100.00;100179.84;5292458;28;20356;-70
2023/12/11 11:37:14;;;;;;;5.30;1.80;;;;;;;9.01;100.00;100177.16;5288168;28;20048;-66
2023/12/11 11:39:59;;;;;;;7.87;2.07;;;;;;;9.06;100.00;100172.47;5293397;28;20375;-66
2023/12/11 11:42:32;;;;;;;5.93;1.60;;;;;;;8.99;100.00;100179.06;5293572;28;20025;-67
2023/12/11 11:45:07;;;;;;;7.53;1.83;;;;;;;8.87;100.00;100176.28;5293001;28;20035;-66
2023/12/11 11:47:38;;;;;;;7.73;2.30;;;;;;;8.94;100.00;100172.34;5292186;28;20386;-68
2023/12/11 11:50:13;;;;;;;10.03;2.67;;;;;;;9.06;100.00;100188.16;5293565;28;20020;-68
2023/12/11 11:53:14;;;;;;;8.40;1.87;;;;;;;9.17;100.00;100185.69;5293415;28;20024;-68
2023/12/11 11:55:45;;;;;;;7.83;2.20;;;;;;;8.97;100.00;100197.44;5293295;28;20070;-68
2023/12/11 11:58:16;;;;;;;6.20;1.93;;;;;;;9.04;100.00;100205.72;5292133;28;20066;-68
2023/12/11 12:00:49;;;;;;;11.63;2.60;;;;;;;8.90;100.00;100189.13;5293938;28;20489;-69
2023/12/11 12:03:20;;;;;;;8.63;2.60;;;;;;;8.98;100.00;100190.41;5292720;28;20040;-67
2023/12/11 12:05:54;;;;;;;8.17;2.03;;;;;;;9.06;100.00;100207.28;5292624;28;20107;-67
2023/12/11 12:08:26;;;;;;;6.07;2.30;;;;;;;9.06;100.00;100209.03;5292371;28;20024;-69
2023/12/11 12:10:57;;;;;;;8.00;2.57;;;;;;;9.09;100.00;100198.44;5289527;28;20505;-68
2023/12/11 12:13:33;;;;;;;7.70;2.20;;;;;;;9.23;100.00;100205.38;5291840;28;20091;-68
2023/12/11 12:16:04;;;;;;;11.47;3.67;;;;;;;9.28;100.00;100194.63;5298662;28;20463;-69
2023/12/11 12:18:36;;;;;;;6.73;1.87;;;;;;;9.19;100.00;100203.88;5296997;28;20021;-69
2023/12/11 12:21:09;;;;;;;13.07;2.07;;;;;;;9.27;100.00;100201.63;5289935;28;20028;-67
2023/12/11 12:23:40;;;;;;;9.93;1.73;;;;;;;9.31;100.00;100213.56;5291016;28;20398;-67
2023/12/11 12:26:12;;;;;;;10.30;1.90;;;;;;;9.37;100.00;100212.31;5276028;28;20028;-65
2023/12/11 12:28:43;;;;;;;8.67;2.67;;;;;;;9.29;100.00;100210.19;5278808;28;20021;-68
2023/12/11 12:31:15;;;;;;;8.23;1.90;;;;;;;9.41;100.00;100212.94;5278458;28;20560;-66
2023/12/11 12:33:48;;;;;;;7.63;2.50;;;;;;;9.37;100.00;100217.56;5276718;28;20028;-67
2023/12/11 12:36:19;;;;;;;13.37;2.37;;;;;;;9.31;100.00;100203.09;5276589;28;20102;-67
2023/12/11 12:38:50;;;;;;;10.07;2.30;;;;;;;9.49;100.00;100221.13;5276299;28;20040;-68
2023/12/11 12:41:22;;;;;;;11.73;2.60;;;;;;;9.52;100.00;100220.94;5272897;28;20037;-65
2023/12/11 12:43:58;;;;;;;10.63;2.13;;;;;;;9.54;100.00;100228.66;5273030;28;20032;-67
2023/12/11 12:46:38;;;;;;;9.47;2.87;;;;;;;9.50;100.00;100233.25;5274468;28;20021;-69
2023/12/11 12:49:11;;;;;;;9.50;1.93;;;;;;;9.43;100.00;100227.59;5275370;28;20020;-67
2023/12/11 12:51:54;;;;;;;7.97;1.70;;;;;;;9.46;100.00;100236.19;5269695;28;20078;-68
2023/12/11 12:54:25;;;;;;;5.97;2.00;;;;;;;9.41;100.00;100245.16;5274936;28;20304;-68
2023/12/11 12:56:59;;;;;;;10.60;2.57;;;;;;;9.40;100.00;100226.97;5274895;28;21835;-70
2023/12/11 12:59:30;;;;;;;7.55;1.50;;;;;;;9.34;100.00;100228.19;5275435;28;20025;-68
2023/12/11 13:02:01;;;;;;;8.07;1.80;;;;;;;9.33;100.00;100229.13;5272106;28;20027;-68
2023/12/11 13:04:33;;;;;;;6.90;1.80;;;;;;;9.35;100.00;100215.97;5266384;28;20035;-67
2023/12/11 13:07:10;;;;;;;11.27;2.77;;;;;;;9.18;100.00;100200.44;5276507;28;20021;-68
2023/12/11 13:09:42;;;;;;;7.83;2.60;;;;;;;9.30;100.00;100211.88;5277991;28;20035;-68
2023/12/11 13:12:17;;;;;;;8.27;2.20;;;;;;;9.34;100.00;100215.13;5275458;28;20503;-68
2023/12/11 13:14:49;;;;;;;6.13;1.97;;;;;;;9.38;100.00;100214.00;5276504;28;20384;-70
2023/12/11 13:17:20;;;;;;;8.20;2.10;;;;;;;9.36;100.00;100221.09;5267233;28;20052;-69
2023/12/11 13:19:52;;;;;;;11.53;2.63;;;;;;;9.40;100.00;100227.81;5271142;28;20511;-67
2023/12/11 13:22:23;;;;;;;7.60;2.03;;;;;;;9.37;100.00;100232.38;5270715;28;20075;-69
2023/12/11 13:24:54;;;;;;;9.47;2.20;;;;;;;9.36;100.00;100231.53;5303950;28;20020;-69
2023/12/11 13:27:26;;;;;;;6.63;1.83;;;;;;;9.38;100.00;100247.13;5274422;28;20029;-68
2023/12/11 13:29:57;;;;;;;7.50;2.33;;;;;;;9.38;100.00;100250.59;5277902;28;20024;-68
2023/12/11 13:32:32;;;;;;;6.10;2.13;;;;;;;9.49;100.00;100256.88;5276876;28;20391;-68
2023/12/11 13:35:03;;;;;;;8.98;3.10;;;;;;;9.44;100.00;100249.34;5278264;28;20021;-69
2023/12/11 13:37:35;;;;;;;9.00;2.33;;;;;;;9.41;100.00;100250.38;5276270;28;20025;-68
2023/12/11 13:40:08;;;;;;;13.57;2.87;;;;;;;9.48;100.00;100257.84;5274732;28;20040;-69
2023/12/11 13:42:39;;;;;;;9.87;2.33;;;;;;;9.57;100.00;100254.59;5275690;28;20028;-69
2023/12/11 13:45:11;;;;;;;10.70;2.13;;;;;;;9.56;100.00;100263.41;5277159;28;20107;-69
2023/12/11 13:47:42;;;;;;;13.20;3.27;;;;;;;9.50;100.00;100267.25;5274177;28;20035;-70
2023/12/11 13:50:14;;;;;;;10.70;2.57;;;;;;;9.50;100.00;100274.25;5277859;28;20659;-68
2023/12/11 13:52:45;;;;;;;8.27;2.37;;;;;;;9.49;100.00;100280.41;5275978;28;20035;-70
2023/12/11 13:55:16;;;;;;;8.80;2.40;;;;;;;9.50;100.00;100282.06;5276376;28;20070;-68
2023/12/11 13:57:48;;;;;;;9.87;2.30;;;;;;;9.52;100.00;100294.13;5276009;28;20104;-68
2023/12/11 14:00:19;;;;;;;11.10;2.30;;;;;;;9.54;100.00;100291.41;5276951;28;20082;-71
2023/12/11 14:02:50;;;;;;;8.00;2.20;;;;;;;9.55;100.00;100291.31;5277145;28;20032;-71
2023/12/11 14:05:22;;;;;;;6.13;1.97;;;;;;;9.50;100.00;100296.00;5276848;28;20082;-70
2023/12/11 14:07:53;;;;;;;9.47;2.23;;;;;;;9.57;100.00;100304.28;5277611;28;20511;-70
2023/12/11 14:10:25;;;;;;;9.37;2.37;;;;;;;9.54;100.00;100309.72;5276178;28;20418;-72
2023/12/11 14:12:57;;;;;;;9.13;1.97;;;;;;;9.52;100.00;100308.97;5277765;28;20113;-69
2023/12/11 14:15:29;;;;;;;12.73;2.53;;;;;;;9.53;100.00;100311.47;5276902;28;20482;-69
2023/12/11 14:18:03;;;;;;;9.57;2.20;;;;;;;9.52;100.00;100324.66;5275869;28;20024;-69
2023/12/11 14:20:34;;;;;;;8.68;2.13;;;;;;;9.53;100.00;100327.16;5271868;28;20020;-69
2023/12/11 14:23:08;;;;;;;9.40;2.33;;;;;;;9.51;100.00;100328.22;5274805;28;20033;-69
2023/12/11 14:25:40;;;;;;;9.77;2.10;;;;;;;9.40;100.00;100321.03;5262342;28;20038;-69
2023/12/11 14:28:11;;;;;;;8.20;2.47;;;;;;;9.43;100.00;100345.22;5274768;28;20028;-70
2023/12/11 14:30:42;;;;;;;11.37;2.60;;;;;;;9.42;100.00;100348.78;5276768;28;20036;-70
2023/12/11 14:33:14;;;;;;;9.67;2.50;;;;;;;9.39;100.00;100354.19;5275279;28;20085;-70
2023/12/11 14:35:46;;;;;;;10.00;3.03;;;;;;;9.40;100.00;100357.63;5275708;28;20028;-70
2023/12/11 14:38:18;;;;;;;11.87;3.53;;;;;;;9.35;100.00;100359.69;5267596;28;20036;-72
2023/12/11 14:40:49;;;;;;;12.20;2.87;;;;;;;9.31;100.00;100364.28;5302232;28;20025;-71
2023/12/11 14:43:20;;;;;;;13.53;2.50;;;;;;;9.35;100.00;100363.16;5263871;28;20094;-67
2023/12/11 14:45:52;;;;;;;10.47;2.70;;;;;;;9.32;100.00;100371.16;5274590;28;20036;-67
2023/12/11 14:48:23;;;;;;;16.37;4.33;;;;;;;9.16;100.00;100368.69;5271389;28;20028;-66
2023/12/11 14:50:55;;;;;;;12.07;3.07;;;;;;;9.33;100.00;100378.09;5268835;28;20107;-67
2023/12/11 14:53:26;;;;;;;17.20;3.10;;;;;;;9.34;100.00;100384.97;5271459;28;20436;-67
2023/12/11 14:55:58;;;;;;;11.83;2.87;;;;;;;9.16;100.00;100369.50;5272894;28;20020;-67
2023/12/11 14:58:33;;;;;;;16.40;3.30;;;;;;;9.30;100.00;100388.75;5269944;28;20068;-69
2023/12/11 15:01:04;;;;;;;21.10;4.80;;;;;;;9.28;100.00;100386.22;5276121;28;20434;-69
2023/12/11 15:03:36;;;;;;;11.77;3.00;;;;;;;9.33;100.00;100393.78;5270407;28;20051;-70
2023/12/11 15:06:07;;;;;;;13.37;3.10;;;;;;;9.26;100.00;100384.63;5274243;28;20021;-70
2023/12/11 15:08:39;;;;;;;17.23;4.93;;;;;;;9.29;100.00;100400.97;5272556;28;20108;-67
2023/12/11 15:11:11;;;;;;;17.87;4.57;;;;;;;9.23;100.00;100393.50;5271841;28;20052;-69
2023/12/11 15:13:42;;;;;;;17.77;4.60;;;;;;;9.26;100.00;100397.69;5271571;28;20050;-69
2023/12/11 15:16:14;;;;;;;10.87;2.90;;;;;;;9.19;100.00;100400.69;5275254;28;20107;-70
2023/12/11 15:18:45;;;;;;;11.57;3.00;;;;;;;9.24;100.00;100400.41;5261721;28;20025;-69
2023/12/11 15:21:17;;;;;;;17.93;3.53;;;;;;;9.23;100.00;100409.19;5271440;28;20017;-69
2023/12/11 15:23:48;;;;;;;15.47;4.30;;;;;;;9.16;100.00;100403.47;5269588;28;20038;-69
2023/12/11 15:26:20;;;;;;;14.53;4.30;;;;;;;9.22;100.00;100404.03;5266241;28;20522;-69
2023/12/11 15:28:52;;;;;;;17.33;4.33;;;;;;;9.16;100.00;100406.09;5273064;28;20500;-70
2023/12/11 15:31:24;;;;;;;15.90;4.43;;;;;;;9.16;100.00;100411.31;5275571;28;20154;-72
2023/12/11 15:33:55;;;;;;;14.67;3.23;;;;;;;9.17;100.00;100405.16;5273627;28;20319;-69
2023/12/11 15:36:27;;;;;;;18.60;4.13;;;;;;;9.20;100.00;100420.66;5271463;28;20032;-69
2023/12/11 15:39:01;;;;;;;13.40;3.90;;;;;;;9.26;100.00;100424.69;5275241;28;20012;-70
2023/12/11 15:41:35;;;;;;;21.15;5.53;;;;;;;9.26;100.00;100429.06;5272271;28;20509;-69
2023/12/11 15:44:06;;;;;;;13.93;3.40;;;;;;;9.20;100.00;100430.25;5272351;28;20024;-68
2023/12/11 15:46:40;;;;;;;14.90;3.13;;;;;;;9.24;100.00;100436.13;5273593;28;20021;-68
2023/12/11 15:49:12;;;;;;;22.60;5.25;;;;;;;9.22;100.00;100438.84;5271764;28;20029;-66
2023/12/11 15:51:48;;;;;;;16.63;4.13;;;;;;;9.24;100.00;100436.13;5269418;28;20020;-66
2023/12/11 15:54:19;;;;;;;16.20;4.03;;;;;;;9.14;100.00;100425.41;5272976;28;20028;-67
2023/12/11 15:56:50;;;;;;;20.67;4.27;;;;;;;9.14;100.00;100428.03;5270262;28;20025;-68
2023/12/11 15:59:22;;;;;;;19.97;5.23;;;;;;;9.14;100.00;100431.50;5272007;28;20555;-68
2023/12/11 16:01:53;;;;;;;21.90;4.27;;;;;;;9.18;100.00;100430.34;5270705;28;20387;-68
2023/12/11 16:04:24;;;;;;;14.83;3.70;;;;;;;9.17;100.00;100433.91;5274733;28;20089;-66
2023/12/11 16:06:55;;;;;;;18.90;4.07;;;;;;;9.18;100.00;100450.44;5275450;28;20020;-68
2023/12/11 16:09:27;;;;;;;17.17;4.47;;;;;;;9.19;100.00;100450.34;5276650;28;20491;-68
2023/12/11 16:11:58;;;;;;;14.37;3.47;;;;;;;9.11;100.00;100452.56;5272527;28;20029;-67
2023/12/11 16:14:30;;;;;;;15.77;3.90;;;;;;;9.14;100.00;100449.78;5277507;28;20276;-68
2023/12/11 16:17:01;;;;;;;13.50;3.73;;;;;;;9.17;100.00;100454.81;5274848;28;20070;-70
2023/12/11 16:19:32;;;;;;;18.50;3.50;;;;;;;9.10;100.00;100458.72;5276725;28;20063;-69
2023/12/11 16:22:04;;;;;;;17.97;4.03;;;;;;;9.18;100.00;100469.53;5277601;28;20108;-69
2023/12/11 16:24:35;;;;;;;19.73;4.40;;;;;;;9.16;100.00;100465.34;5269492;28;20025;-72
2023/12/11 16:27:06;;;;;;;16.50;4.47;;;;;;;9.18;100.00;100474.78;5281791;28;20029;-70
2023/12/11 16:29:38;;;;;;;15.70;4.37;;;;;;;9.19;100.00;100471.25;5277673;28;20029;-70
2023/12/11 16:32:09;;;;;;;21.97;4.00;;;;;;;9.10;100.00;100453.50;5276338;28;20063;-70
2023/12/11 16:34:41;;;;;;;19.07;4.33;;;;;;;9.12;100.00;100469.06;5276570;28;20072;-71
2023/12/11 16:37:13;;;;;;;18.63;4.83;;;;;;;9.14;100.00;100475.91;5277237;28;20035;-70
2023/12/11 16:39:44;;;;;;;13.23;3.97;;;;;;;9.10;100.00;100471.78;5277071;28;20020;-70
2023/12/11 16:42:15;;;;;;;13.10;4.43;;;;;;;9.12;100.00;100475.16;5275584;28;20093;-70
2023/12/11 16:44:47;;;;;;;15.57;3.53;;;;;;;9.15;100.00;100485.41;5258881;28;20451;-70
2023/12/11 16:47:18;;;;;;;16.07;4.50;;;;;;;9.13;100.00;100478.63;5263532;28;20028;-70
2023/12/11 16:49:50;;;;;;;16.13;4.07;;;;;;;9.14;100.00;100482.91;5264455;28;20793;-71
2023/12/11 16:52:21;;;;;;;18.27;3.93;;;;;;;9.14;100.00;100488.97;5275937;28;20023;-69
2023/12/11 16:54:53;;;;;;;19.27;4.57;;;;;;;9.10;100.00;100487.47;5274719;28;20086;-69
2023/12/11 16:57:24;;;;;;;13.77;4.00;;;;;;;9.12;100.00;100489.97;5275321;28;20031;-68
2023/12/11 16:59:55;;;;;;;14.70;4.43;;;;;;;9.06;100.00;100471.13;5271038;28;20017;-69
2023/12/11 17:02:27;;;;;;;15.77;4.00;;;;;;;9.06;100.00;100492.03;5266927;28;20075;-69
2023/12/11 17:04:58;;;;;;;17.13;5.17;;;;;;;9.14;100.00;100491.59;5273648;28;20033;-69
2023/12/11 17:07:31;;;;;;;14.50;4.37;;;;;;;9.05;100.00;100497.34;5276479;28;20032;-68
2023/12/11 17:10:02;;;;;;;14.50;3.83;;;;;;;9.06;100.00;100491.16;5275687;28;20826;-69
2023/12/11 17:12:34;;;;;;;16.43;4.60;;;;;;;9.03;100.00;100496.59;5270083;28;20048;-69
2023/12/11 17:15:07;;;;;;;15.77;4.80;;;;;;;9.09;100.00;100511.91;5265399;28;20056;-71
2023/12/11 17:17:38;;;;;;;15.43;3.60;;;;;;;9.09;100.00;100511.91;5275897;28;20074;-68
2023/12/11 17:20:10;;;;;;;21.27;3.90;;;;;;;9.06;100.00;100517.28;5273869;28;20029;-68
2023/12/11 17:22:41;;;;;;;12.67;3.37;;;;;;;9.10;100.00;100516.19;5273215;28;20120;-71
2023/12/11 17:25:13;;;;;;;17.43;3.87;;;;;;;9.05;100.00;100513.88;5272784;28;20021;-69
2023/12/11 17:27:44;;;;;;;22.63;3.83;;;;;;;9.04;100.00;100525.22;5276322;28;20032;-69
2023/12/11 17:30:15;;;;;;;12.93;3.27;;;;;;;9.11;100.00;100528.31;5274410;28;20081;-68
2023/12/11 17:32:47;;;;;;;13.87;4.57;;;;;;;9.06;100.00;100519.91;5274309;28;20078;-68
2023/12/11 17:35:19;;;;;;;14.40;4.40;;;;;;;9.07;100.00;100534.66;5275166;28;20040;-70
2023/12/11 17:37:50;;;;;;;13.17;4.33;;;;;;;9.08;100.00;100534.56;5274346;28;20024;-69
2023/12/11 17:40:21;;;;;;;14.13;3.53;;;;;;;9.07;100.00;100538.13;5265780;28;20383;-69
2023/12/11 17:42:53;;;;;;;14.80;3.20;;;;;;;9.03;100.00;100533.16;5271052;28;20503;-69
2023/12/11 17:45:26;;;;;;;14.37;3.47;;;;;;;9.07;100.00;100532.06;5267511;28;20462;-71
2023/12/11 17:47:59;;;;;;;13.13;3.57;;;;;;;9.07;100.00;100545.97;5297458;28;20024;-67
2023/12/11 17:50:30;;;;;;;14.73;3.37;;;;;;;9.04;100.00;100546.13;5271911;28;20024;-69
2023/12/11 17:53:02;;;;;;;12.23;3.60;;;;;;;9.06;100.00;100539.03;5273359;28;20533;-69
2023/12/11 17:55:33;;;;;;;10.43;3.27;;;;;;;9.05;100.00;100542.59;5281855;28;20357;-70
2023/12/11 17:58:04;;;;;;;13.67;4.17;;;;;;;9.07;100.00;100555.56;5269901;28;20020;-68
2023/12/11 18:00:36;;;;;;;10.37;3.20;;;;;;;9.03;100.00;100554.06;5270668;28;20024;-70
2023/12/11 18:03:07;;;;;;;11.67;3.27;;;;;;;9.05;100.00;100560.03;5271397;28;20033;-69
2023/12/11 18:05:38;;;;;;;11.03;3.23;;;;;;;9.03;100.00;100561.88;5271077;28;20057;-70
2023/12/11 18:08:10;;;;;;;10.87;2.90;;;;;;;9.01;100.00;100566.34;5274520;28;20037;-69
2023/12/11 18:10:41;;;;;;;15.50;4.27;;;;;;;8.98;100.00;100567.38;5263626;28;20027;-68
2023/12/11 18:13:13;;;;;;;11.60;3.63;;;;;;;8.97;100.00;100570.09;5277289;28;20024;-70
2023/12/11 18:15:44;;;;;;;10.50;3.10;;;;;;;8.87;100.00;100554.94;5262954;28;20072;-70
2023/12/11 18:18:15;;;;;;;17.17;4.43;;;;;;;8.93;100.00;100570.28;5273096;28;20112;-69
2023/12/11 18:20:47;;;;;;;10.90;3.50;;;;;;;8.98;100.00;100572.63;5266496;28;20025;-68
2023/12/11 18:23:18;;;;;;;14.83;3.90;;;;;;;8.92;100.00;100565.97;5274692;28;20043;-68
2023/12/11 18:25:49;;;;;;;10.10;4.03;;;;;;;8.93;100.00;100569.44;5273540;28;20029;-67
2023/12/11 18:28:20;;;;;;;14.07;3.80;;;;;;;8.95;100.00;100581.44;5272753;28;20036;-68
2023/12/11 18:30:52;;;;;;;12.47;4.00;;;;;;;8.87;100.00;100590.66;5276024;28;20033;-68
2023/12/11 18:33:23;;;;;;;11.37;3.23;;;;;;;8.86;100.00;100602.88;5275527;28;20046;-70
2023/12/11 18:35:55;;;;;;;12.40;3.93;;;;;;;8.81;100.00;100604.91;5274333;28;20039;-70
2023/12/11 18:38:26;;;;;;;14.67;4.27;;;;;;;8.84;100.00;100607.34;5267074;28;20028;-72
2023/12/11 18:40:58;;;;;;;12.63;4.10;;;;;;;8.82;100.00;100610.06;5274553;28;20036;-69
2023/12/11 18:43:29;;;;;;;20.40;4.40;;;;;;;8.83;100.00;100606.50;5274726;28;20028;-71
2023/12/11 18:46:01;;;;;;;14.63;3.47;;;;;;;8.78;100.00;100592.03;5260759;28;20028;-70
2023/12/11 18:48:32;;;;;;;21.53;4.00;;;;;;;8.73;100.00;100605.34;5275757;28;20039;-70
2023/12/11 18:51:04;;;;;;;15.20;3.87;;;;;;;8.78;100.00;100618.16;5275912;28;20028;-70
2023/12/11 18:53:35;;;;;;;13.07;3.50;;;;;;;8.78;100.00;100612.94;5266671;28;20028;-71
2023/12/11 18:56:07;;;;;;;14.47;3.70;;;;;;;8.75;100.00;100607.84;5274071;28;20029;-70
2023/12/11 18:58:38;;;;;;;18.67;4.27;;;;;;;8.74;100.00;100606.19;5261079;28;20033;-69
2023/12/11 19:01:10;;;;;;;13.17;4.67;;;;;;;8.73;100.00;100601.91;5274530;28;20028;-69
2023/12/11 19:03:41;;;;;;;16.80;4.67;;;;;;;8.77;100.00;100613.84;5262003;28;20098;-70
2023/12/11 19:06:13;;;;;;;14.77;5.07;;;;;;;8.72;100.00;100614.09;5269213;28;20047;-69
2023/12/11 19:08:45;;;;;;;16.70;4.37;;;;;;;8.68;100.00;100613.44;5268922;28;20028;-69
2023/12/11 19:11:16;;;;;;;23.53;4.73;;;;;;;8.67;100.00;100616.13;5261570;28;20025;-69
2023/12/11 19:13:47;;;;;;;21.43;4.27;;;;;;;8.61;100.00;100611.22;5262455;28;20132;-69
2023/12/11 19:16:19;;;;;;;14.27;3.83;;;;;;;8.63;100.00;100620.69;5267041;28;20041;-68
2023/12/11 19:18:50;;;;;;;12.73;4.20;;;;;;;8.64;100.00;100627.56;5259318;28;20122;-68
2023/12/11 19:21:21;;;;;;;13.33;4.40;;;;;;;8.70;100.00;100621.19;5263949;28;20035;-68
2023/12/11 19:23:54;;;;;;;11.40;3.80;;;;;;;8.65;100.00;100616.22;5269689;28;20032;-69
2023/12/11 19:26:25;;;;;;;15.93;5.60;;;;;;;8.59;100.00;100629.59;5268513;28;20086;-67
2023/12/11 19:28:57;;;;;;;15.60;5.13;;;;;;;8.55;100.00;100612.41;5267622;28;20029;-68
2023/12/11 19:31:28;;;;;;;12.87;4.00;;;;;;;8.58;100.00;100620.09;5267150;28;20036;-69
2023/12/11 19:33:59;;;;;;;17.87;4.47;;;;;;;8.54;100.00;100621.16;5270843;28;20036;-69
2023/12/11 19:36:30;;;;;;;11.63;3.87;;;;;;;8.55;100.00;100628.06;5268807;28;20028;-68
2023/12/11 19:39:02;;;;;;;12.77;4.77;;;;;;;8.44;100.00;100618.19;5274480;28;20032;-68
2023/12/11 19:41:33;;;;;;;18.73;4.13;;;;;;;8.52;100.00;100633.47;5273722;28;20059;-68
2023/12/11 19:44:04;;;;;;;15.90;4.77;;;;;;;8.51;100.00;100632.63;5273037;28;20564;-67
2023/12/11 19:46:45;;;;;;;12.80;4.73;;;;;;;8.52;100.00;100639.50;5273730;28;20028;-69
2023/12/11 19:49:16;;;;;;;19.13;4.97;;;;;;;8.50;100.00;100632.69;5270476;28;20032;-68
2023/12/11 19:51:48;;;;;;;20.00;5.77;;;;;;;8.52;100.00;100633.47;5272768;28;20089;-67
2023/12/11 19:54:19;;;;;;;17.20;5.33;;;;;;;8.50;100.00;100640.53;5272453;28;20055;-67
2023/12/11 19:56:50;;;;;;;14.70;4.57;;;;;;;8.45;100.00;100635.53;5271926;28;20021;-68
2023/12/11 19:59:22;;;;;;;17.63;4.37;;;;;;;8.52;100.00;100644.72;5273655;28;20036;-67
2023/12/11 20:01:53;;;;;;;21.13;3.90;;;;;;;8.51;100.00;100647.41;5271853;28;20016;-66
2023/12/11 20:04:24;;;;;;;11.20;3.60;;;;;;;8.49;100.00;100650.13;5273936;28;20044;-68
2023/12/11 20:06:55;;;;;;;13.33;4.43;;;;;;;8.54;100.00;100660.28;5269040;28;20079;-68
2023/12/11 20:09:27;;;;;;;18.03;4.43;;;;;;;8.44;100.00;100644.31;5273965;28;20023;-68
2023/12/11 20:11:58;;;;;;;16.13;4.63;;;;;;;8.54;100.00;100662.91;5270844;28;20062;-68
2023/12/11 20:14:29;;;;;;;16.33;4.33;;;;;;;8.51;100.00;100652.63;5272170;28;20040;-68
2023/12/11 20:17:01;;;;;;;20.10;4.57;;;;;;;8.54;100.00;100662.91;5273160;28;20025;-70
2023/12/11 20:19:33;;;;;;;16.73;5.10;;;;;;;8.48;100.00;100659.69;5271076;28;20099;-68
2023/12/11 20:22:04;;;;;;;17.13;4.43;;;;;;;8.53;100.00;100659.47;5272284;28;20634;-68
2023/12/11 20:24:36;;;;;;;10.37;3.97;;;;;;;8.43;100.00;100640.84;5270570;28;20021;-70
2023/12/11 20:27:07;;;;;;;16.43;4.23;;;;;;;8.53;100.00;100669.91;5270401;28;20036;-69
2023/12/11 20:29:38;;;;;;;14.73;5.37;;;;;;;8.52;100.00;100664.78;5270463;28;20035;-70
2023/12/11 20:32:10;;;;;;;15.37;4.70;;;;;;;8.51;100.00;100668.31;5268816;28;20028;-69
2023/12/11 20:34:41;;;;;;;12.00;4.63;;;;;;;8.54;100.00;100673.34;5268606;28;20388;-69
2023/12/11 20:37:12;;;;;;;17.30;5.03;;;;;;;8.42;100.00;100667.88;5274708;28;20059;-68
2023/12/11 20:39:43;;;;;;;15.97;4.63;;;;;;;8.52;100.00;100670.81;5271056;28;20024;-68
2023/12/11 20:42:16;;;;;;;13.77;4.20;;;;;;;8.49;100.00;100671.00;5274424;28;20036;-68
2023/12/11 20:44:48;;;;;;;19.20;5.30;;;;;;;8.45;100.00;100674.69;5273285;28;20078;-67
2023/12/11 20:47:19;;;;;;;14.97;5.20;;;;;;;8.45;100.00;100670.31;5273102;28;20082;-68
2023/12/11 20:49:52;;;;;;;15.03;6.20;;;;;;;8.50;100.00;100674.47;5274936;28;20028;-68
2023/12/11 20:52:23;;;;;;;18.80;5.67;;;;;;;8.50;100.00;100677.06;5273849;28;20036;-68
2023/12/11 20:54:56;;;;;;;17.07;6.07;;;;;;;8.49;100.00;100671.00;5271411;28;20495;-68
2023/12/11 20:57:29;;;;;;;21.10;6.63;;;;;;;8.48;100.00;100677.16;5272961;28;21262;-68
2023/12/11 21:00:05;;;;;;;11.93;5.20;;;;;;;8.51;100.00;100678.75;5272124;28;20024;-68
2023/12/11 21:02:37;;;;;;;16.43;4.60;;;;;;;8.46;100.00;100679.00;5272263;28;20390;-69
2023/12/11 21:05:09;;;;;;;18.30;5.80;;;;;;;8.40;100.00;100680.16;5270067;28;20044;-69
2023/12/11 21:07:41;;;;;;;17.70;5.70;;;;;;;8.48;100.00;100691.03;5273679;28;20028;-69
2023/12/11 21:10:12;;;;;;;13.07;4.97;;;;;;;8.41;100.00;100689.66;5270546;28;20078;-68
2023/12/11 21:12:44;;;;;;;14.10;5.93;;;;;;;8.44;100.00;100689.53;5273407;28;20497;-68
2023/12/11 21:15:15;;;;;;;21.53;6.57;;;;;;;8.40;100.00;100689.75;5272574;28;20048;-69
2023/12/11 21:17:46;;;;;;;15.63;5.60;;;;;;;8.43;100.00;100687.81;5272635;28;20039;-70
2023/12/11 21:20:17;;;;;;;12.00;4.83;;;;;;;8.42;100.00;100682.69;5270861;28;20043;-69
2023/12/11 21:22:49;;;;;;;12.07;5.20;;;;;;;8.39;100.00;100690.69;5271334;28;20540;-69
2023/12/11 21:25:20;;;;;;;17.17;6.23;;;;;;;8.37;100.00;100693.38;5271494;28;20494;-69
2023/12/11 21:27:51;;;;;;;16.07;6.47;;;;;;;8.39;100.00;100688.94;5276841;28;20025;-69
2023/12/11 21:30:23;;;;;;;16.97;5.70;;;;;;;8.36;100.00;100702.13;5274281;28;20024;-69
2023/12/11 21:32:54;;;;;;;16.00;5.57;;;;;;;8.40;100.00;100705.41;5272228;28;20035;-69
2023/12/11 21:35:25;;;;;;;22.57;6.27;;;;;;;8.37;100.00;100701.22;5269501;28;20527;-70
2023/12/11 21:37:56;;;;;;;14.97;5.67;;;;;;;8.37;100.00;100706.44;5275984;28;20024;-69
2023/12/11 21:40:28;;;;;;;18.53;6.27;;;;;;;8.38;100.00;100710.72;5276725;28;20031;-69
2023/12/11 21:42:59;;;;;;;14.73;5.10;;;;;;;8.34;100.00;100704.00;5269130;28;20052;-69
2023/12/11 21:45:30;;;;;;;14.13;6.33;;;;;;;8.35;100.00;100710.88;5273682;28;20028;-69
2023/12/11 21:48:03;;;;;;;17.80;6.10;;;;;;;8.34;100.00;100715.25;5278356;28;20095;-68
2023/12/11 21:50:34;;;;;;;18.13;5.83;;;;;;;8.38;100.00;100715.09;5269820;28;20485;-68
2023/12/11 21:53:05;;;;;;;16.03;5.93;;;;;;;8.37;100.00;100723.84;5273744;28;20020;-69
2023/12/11 21:55:37;;;;;;;14.93;5.43;;;;;;;8.31;100.00;100712.81;5269768;28;20028;-69
2023/12/11 21:58:08;;;;;;;12.87;6.37;;;;;;;8.34;100.00;100719.66;5271185;28;20024;-69
2023/12/11 22:00:40;;;;;;;14.87;5.23;;;;;;;8.30;100.00;100726.78;5304884;28;20056;-66
2023/12/11 22:03:11;;;;;;;12.00;4.73;;;;;;;8.34;100.00;100735.31;5269301;28;20448;-68
2023/12/11 22:05:43;;;;;;;15.33;5.57;;;;;;;8.28;100.00;100735.59;5275251;28;20028;-68
2023/12/11 22:08:14;;;;;;;10.53;4.90;;;;;;;8.31;100.00;100730.22;5269764;28;20037;-68
2023/12/11 22:10:46;;;;;;;10.60;4.33;;;;;;;8.32;100.00;100734.53;5273037;28;20016;-69
2023/12/11 22:13:17;;;;;;;11.87;5.57;;;;;;;8.33;100.00;100733.59;5273081;28;20487;-69
2023/12/11 22:15:49;;;;;;;14.53;4.70;;;;;;;8.35;100.00;100726.53;5274169;28;20035;-71
2023/12/11 22:18:20;;;;;;;11.50;5.07;;;;;;;8.31;100.00;100722.38;5274632;28;20491;-69
2023/12/11 22:20:51;;;;;;;13.43;4.93;;;;;;;8.27;100.00;100719.13;5278032;28;20036;-67
